Time;durP1;ratioP1;P1;durP2;ratioP2;P2;SDS_P1;SDS_P2;PMS_P1;PMS_P2;Temp;Humidity;BMP_temperature;BMP_pressure;BME280_temperature;BME280_humidity;BME280_pressure;Samples;Min_cycle;Max_cycle;Signal;HPM_P1;HPM_P2
2023/01/24 00:02:05;;;;;;;1999.90;999.90;;;;;;;2.86;100.00;103782.44;10416622;28;20119;-69
2023/01/24 00:07:07;;;;;;;1999.90;999.90;;;;;;;2.88;100.00;103770.41;10417052;28;20052;-69
2023/01/24 00:12:09;;;;;;;1999.90;999.90;;;;;;;2.85;100.00;103772.94;10415343;28;20049;-69
2023/01/24 00:17:12;;;;;;;1999.90;999.90;;;;;;;2.84;100.00;103770.31;10414995;28;20541;-69
2023/01/24 00:22:14;;;;;;;1999.90;999.90;;;;;;;2.88;100.00;103761.78;10414814;28;20424;-69
2023/01/24 00:27:17;;;;;;;1999.90;999.90;;;;;;;2.75;100.00;103761.50;10416411;28;20103;-69
2023/01/24 00:32:19;;;;;;;1999.90;999.90;;;;;;;2.98;100.00;103753.38;10414035;28;20052;-69
2023/01/24 00:37:22;;;;;;;1999.90;999.90;;;;;;;2.80;100.00;103743.50;10414866;28;20053;-69
2023/01/24 00:42:24;;;;;;;1999.90;999.90;;;;;;;2.77;100.00;103738.25;10415894;28;20049;-69
2023/01/24 00:47:27;;;;;;;1999.90;999.90;;;;;;;2.64;100.00;103746.56;10414029;28;20052;-68
2023/01/24 00:52:29;;;;;;;1999.90;999.90;;;;;;;2.50;100.00;103747.09;10412400;28;20107;-69
2023/01/24 00:57:31;;;;;;;1999.90;999.90;;;;;;;2.59;100.00;103733.53;10414122;28;20049;-68
2023/01/24 01:02:34;;;;;;;1999.90;999.90;;;;;;;2.75;100.00;103733.03;10415412;28;20096;-69
2023/01/24 01:07:37;;;;;;;1999.90;999.90;;;;;;;2.56;100.00;103728.28;10415785;28;20053;-69
2023/01/24 01:12:39;;;;;;;1999.90;999.90;;;;;;;2.61;100.00;103729.28;10413305;28;20545;-69
2023/01/24 01:17:42;;;;;;;1999.90;999.90;;;;;;;2.43;100.00;103727.13;10411993;28;20100;-69
2023/01/24 01:22:44;;;;;;;1999.90;999.90;;;;;;;2.57;100.00;103727.44;10374212;28;20061;-69
2023/01/24 01:27:46;;;;;;;1999.90;999.90;;;;;;;2.63;100.00;103734.47;10373513;28;20486;-68
2023/01/24 01:32:49;;;;;;;1999.90;999.90;;;;;;;2.60;100.00;103736.13;10375898;28;20488;-69
2023/01/24 01:37:51;;;;;;;1999.90;999.90;;;;;;;2.58;100.00;103739.53;10413071;28;20501;-68
2023/01/24 01:42:55;;;;;;;1999.90;999.90;;;;;;;2.55;100.00;103742.91;10413365;28;20505;-69
2023/01/24 01:47:58;;;;;;;1999.90;999.90;;;;;;;2.33;100.00;103738.94;10412639;28;20060;-68
2023/01/24 01:53:01;;;;;;;1999.90;999.90;;;;;;;2.38;100.00;103742.53;10412846;28;20072;-69
2023/01/24 01:58:03;;;;;;;1999.90;999.90;;;;;;;2.52;100.00;103747.16;10411583;28;20065;-69
2023/01/24 02:08:33;;;;;;;1999.90;999.90;;;;;;;2.36;100.00;103749.38;10421155;28;20049;-68
2023/01/24 02:13:38;;;;;;;1999.90;999.90;;;;;;;2.23;100.00;103737.84;10420878;28;20049;-68
2023/01/24 02:18:42;;;;;;;1999.90;999.90;;;;;;;2.34;100.00;103737.25;10420267;28;20053;-69
2023/01/24 02:23:57;;;;;;;1999.90;999.90;;;;;;;2.38;100.00;103739.06;10403061;28;20053;-68
2023/01/24 02:29:09;;;;;;;1999.90;999.90;;;;;;;2.26;100.00;103731.03;10419726;28;20132;-69
2023/01/24 02:34:12;;;;;;;1999.90;999.90;;;;;;;2.13;100.00;103735.00;10418688;28;20060;-68
2023/01/24 02:39:17;;;;;;;1999.90;999.90;;;;;;;2.44;100.00;103741.81;10419512;28;20049;-68
2023/01/24 02:44:43;;;;;;;1999.90;999.90;;;;;;;2.31;100.00;103739.78;10417066;28;20045;-68
2023/01/24 02:49:45;;;;;;;1999.90;999.90;;;;;;;2.40;100.00;103739.97;10402621;28;20061;-69
2023/01/24 02:54:47;;;;;;;1999.90;999.90;;;;;;;2.34;100.00;103734.69;10417242;28;20503;-69
2023/01/24 02:59:50;;;;;;;1999.90;999.90;;;;;;;2.45;100.00;103730.59;10418209;28;20046;-68
2023/01/24 03:04:52;;;;;;;1999.90;999.90;;;;;;;2.35;100.00;103729.50;10419516;28;20049;-69
2023/01/24 03:09:54;;;;;;;1999.90;999.90;;;;;;;2.27;100.00;103736.25;10417378;28;20051;-68
2023/01/24 03:36:31;;;;;;;1999.90;999.90;;;;;;;2.28;100.00;103721.59;10416707;28;20053;-68
2023/01/24 03:41:34;;;;;;;1999.90;999.90;;;;;;;2.21;100.00;103718.84;10416891;28;20053;-68
2023/01/24 03:46:39;;;;;;;1999.90;999.90;;;;;;;2.16;100.00;103728.19;10417275;28;20547;-68
2023/01/24 03:57:04;;;;;;;1999.90;999.90;;;;;;;2.17;100.00;103722.22;10414477;28;20128;-66
2023/01/24 04:02:06;;;;;;;1999.90;999.90;;;;;;;2.55;100.00;103726.53;10416682;28;20484;-66
2023/01/24 04:07:08;;;;;;;1999.90;999.90;;;;;;;2.19;100.00;103732.59;10415786;28;20107;-66
2023/01/24 04:12:27;;;;;;;1999.90;999.90;;;;;;;2.15;100.00;103734.22;10415851;28;20107;-66
2023/01/24 04:17:30;;;;;;;1999.90;999.90;;;;;;;2.20;100.00;103731.72;10415848;28;20415;-65
2023/01/24 04:22:32;;;;;;;1999.90;999.90;;;;;;;2.08;100.00;103729.72;10377799;28;20097;-66
2023/01/24 04:27:34;;;;;;;1999.90;999.90;;;;;;;2.10;100.00;103730.66;10381538;28;20053;-66
2023/01/24 04:32:37;;;;;;;1999.90;999.90;;;;;;;2.26;100.00;103731.03;10376005;28;20049;-66
2023/01/24 04:37:39;;;;;;;1999.90;999.90;;;;;;;2.27;100.00;103744.00;10383064;28;20099;-66
2023/01/24 04:42:42;;;;;;;1999.90;999.90;;;;;;;2.12;100.00;103739.31;10414299;28;20103;-66
2023/01/24 04:47:44;;;;;;;1999.90;999.90;;;;;;;2.00;100.00;103736.41;10414660;28;20195;-66
2023/01/24 04:52:47;;;;;;;1999.90;999.90;;;;;;;2.18;100.00;103736.00;10415475;28;20054;-66
2023/01/24 04:57:49;;;;;;;1999.90;999.90;;;;;;;2.18;100.00;103738.59;10414570;28;20054;-66
2023/01/24 05:02:51;;;;;;;1999.90;999.90;;;;;;;2.05;100.00;103732.22;10414629;28;20041;-66
2023/01/24 05:07:54;;;;;;;1999.90;999.90;;;;;;;2.09;100.00;103740.94;10415421;28;20059;-66
2023/01/24 05:12:56;;;;;;;1999.90;999.90;;;;;;;2.13;100.00;103733.28;10413858;28;20046;-66
2023/01/24 05:17:58;;;;;;;1999.90;999.90;;;;;;;2.06;100.00;103738.28;10413800;28;20496;-66
2023/01/24 05:23:01;;;;;;;1999.90;999.90;;;;;;;1.97;100.00;103744.97;10414358;28;20049;-66
2023/01/24 05:28:03;;;;;;;1999.90;999.90;;;;;;;1.91;100.00;103747.38;10415326;28;20049;-66
2023/01/24 05:33:06;;;;;;;1999.90;999.90;;;;;;;2.11;100.00;103759.94;10415062;28;20049;-66
2023/01/24 05:38:08;;;;;;;1999.90;999.90;;;;;;;2.26;100.00;103762.06;10420129;28;20489;-66
2023/01/24 05:43:10;;;;;;;1999.90;999.90;;;;;;;2.17;100.00;103750.66;10422198;28;20480;-66
2023/01/24 05:48:13;;;;;;;1999.90;999.90;;;;;;;2.19;100.00;103766.19;10423024;28;20057;-66
2023/01/24 05:53:15;;;;;;;1999.90;999.90;;;;;;;2.30;100.00;103771.63;10419949;28;20068;-66
2023/01/24 05:58:17;;;;;;;1999.90;999.90;;;;;;;1.94;100.00;103768.13;10420063;28;20103;-66
2023/01/24 06:03:20;;;;;;;1999.90;999.90;;;;;;;1.96;100.00;103776.78;10421926;28;20068;-65
2023/01/24 06:08:22;;;;;;;1999.90;999.90;;;;;;;1.90;100.00;103771.50;10421797;28;20064;-66
2023/01/24 06:13:24;;;;;;;1999.90;999.90;;;;;;;1.91;100.00;103778.38;10420729;28;20159;-66
2023/01/24 06:18:27;;;;;;;1999.90;999.90;;;;;;;2.06;100.00;103782.22;10420694;28;20053;-66
2023/01/24 06:23:29;;;;;;;1999.90;999.90;;;;;;;2.02;100.00;103784.72;10420435;28;20045;-66
2023/01/24 06:28:32;;;;;;;1999.90;999.90;;;;;;;1.76;100.00;103786.59;10420983;28;20099;-66
2023/01/24 06:34:00;;;;;;;1999.90;999.90;;;;;;;1.94;100.00;103780.19;10419306;28;20045;-66
2023/01/24 06:39:02;;;;;;;1999.90;999.90;;;;;;;1.97;100.00;103788.91;10419115;28;20053;-66
2023/01/24 06:44:07;;;;;;;1999.90;999.90;;;;;;;2.00;100.00;103782.91;10419852;28;20119;-66
2023/01/24 06:49:11;;;;;;;1999.90;999.90;;;;;;;2.04;100.00;103782.19;10416249;28;20061;-66
2023/01/24 06:54:13;;;;;;;1999.90;999.90;;;;;;;1.99;100.00;103791.53;10418523;28;20091;-66
2023/01/24 06:59:15;;;;;;;1999.90;999.90;;;;;;;1.89;100.00;103799.88;10418398;28;20061;-66
2023/01/24 07:04:18;;;;;;;1999.90;999.90;;;;;;;1.84;100.00;103802.31;10418927;28;20045;-66
2023/01/24 07:09:24;;;;;;;1999.90;999.90;;;;;;;1.93;100.00;103807.72;10416861;28;20045;-66
2023/01/24 07:14:26;;;;;;;1999.90;999.90;;;;;;;1.94;100.00;103809.47;10401574;28;20041;-66
2023/01/24 07:19:29;;;;;;;1999.90;999.90;;;;;;;1.64;100.00;103818.13;10416075;28;20068;-65
2023/01/24 07:24:32;;;;;;;1999.90;999.90;;;;;;;1.81;100.00;103820.31;10417671;28;20056;-66
2023/01/24 07:29:34;;;;;;;1999.90;999.90;;;;;;;1.94;100.00;103837.03;10416750;28;20060;-66
2023/01/24 07:34:36;;;;;;;1999.90;999.90;;;;;;;1.81;100.00;103830.66;10417763;28;20049;-66
2023/01/24 07:39:39;;;;;;;1999.90;999.90;;;;;;;1.91;100.00;103834.38;10414674;28;20434;-66
2023/01/24 07:44:41;;;;;;;1999.90;999.90;;;;;;;1.85;100.00;103840.25;10417305;28;20060;-66
2023/01/24 07:49:44;;;;;;;1999.90;999.90;;;;;;;2.01;100.00;103836.38;10417028;28;20061;-66
2023/01/24 07:54:46;;;;;;;1999.90;999.90;;;;;;;2.09;100.00;103840.03;10416960;28;20053;-66
2023/01/24 07:59:48;;;;;;;1999.90;999.90;;;;;;;1.91;100.00;103842.13;10413221;28;20504;-66
2023/01/24 08:04:50;;;;;;;1999.90;999.90;;;;;;;1.80;100.00;103850.44;10377315;28;20099;-66
2023/01/24 08:09:53;;;;;;;1999.90;999.90;;;;;;;1.96;100.00;103856.91;10404886;28;20136;-66
2023/01/24 08:14:55;;;;;;;1999.90;999.90;;;;;;;1.99;100.00;103851.81;10414193;28;20562;-66
2023/01/24 08:19:57;;;;;;;1999.90;999.90;;;;;;;1.94;100.00;103856.00;10399330;28;20489;-66
2023/01/24 08:25:00;;;;;;;1999.90;999.90;;;;;;;1.97;100.00;103852.63;10416586;28;20049;-66
2023/01/24 08:30:03;;;;;;;1999.90;999.90;;;;;;;2.05;100.00;103858.88;10415302;28;20054;-66
2023/01/24 08:35:06;;;;;;;1999.90;999.90;;;;;;;1.97;100.00;103861.25;10414443;28;20455;-66
2023/01/24 08:40:10;;;;;;;1999.90;999.90;;;;;;;1.64;100.00;103866.34;10411054;28;20050;-66
2023/01/24 08:45:12;;;;;;;1999.90;999.90;;;;;;;1.96;100.00;103867.25;10413748;28;20408;-66
2023/01/24 08:50:16;;;;;;;1999.90;999.90;;;;;;;1.92;100.00;103870.59;10415030;28;20421;-66
2023/01/24 08:55:18;;;;;;;1999.90;999.90;;;;;;;2.16;100.00;103879.84;10411050;28;20504;-66
2023/01/24 09:00:20;;;;;;;1999.90;999.90;;;;;;;1.96;100.00;103874.13;10413118;28;20050;-66
2023/01/24 09:05:23;;;;;;;1999.90;999.90;;;;;;;2.17;100.00;103877.31;10413181;28;20508;-65
2023/01/24 09:10:26;;;;;;;1999.90;999.90;;;;;;;2.19;100.00;103879.94;10418851;28;20087;-66
2023/01/24 09:15:29;;;;;;;1999.90;999.90;;;;;;;2.03;100.00;103881.22;10423786;28;20052;-66
2023/01/24 09:20:31;;;;;;;1999.90;999.90;;;;;;;2.06;100.00;103889.06;10423661;28;20053;-65
2023/01/24 09:25:34;;;;;;;1999.90;999.90;;;;;;;1.91;100.00;103884.31;10423497;28;20052;-65
2023/01/24 09:30:37;;;;;;;1999.90;999.90;;;;;;;2.06;100.00;103889.06;10423310;28;20049;-65
2023/01/24 09:35:40;;;;;;;1999.90;999.90;;;;;;;2.21;100.00;103889.47;10423042;28;20052;-65
2023/01/24 09:40:43;;;;;;;1999.90;999.90;;;;;;;2.09;100.00;103889.16;10422932;28;20061;-66
2023/01/24 09:46:04;;;;;;;1999.90;999.90;;;;;;;2.15;100.00;103896.19;10420963;28;20057;-65
2023/01/24 09:51:15;;;;;;;1999.90;999.90;;;;;;;2.02;100.00;103895.84;10422217;28;20079;-66
2023/01/24 09:56:34;;;;;;;1999.90;999.90;;;;;;;2.17;100.00;103894.50;10421003;28;20045;-65
2023/01/24 10:01:40;;;;;;;1999.90;999.90;;;;;;;2.19;100.00;103901.50;10421022;28;20057;-65
2023/01/24 10:07:08;;;;;;;1999.90;999.90;;;;;;;2.25;100.00;103913.69;10420872;28;20054;-65
2023/01/24 10:12:44;;;;;;;1999.90;999.90;;;;;;;2.12;100.00;103909.91;10420923;28;20049;-65
2023/01/24 10:18:16;;;;;;;1999.90;999.90;;;;;;;2.26;100.00;103912.00;10421443;28;20057;-65
2023/01/24 10:23:23;;;;;;;1999.90;999.90;;;;;;;2.31;100.00;103905.25;10420389;28;20420;-66
2023/01/24 10:28:38;;;;;;;1999.90;999.90;;;;;;;2.41;100.00;103915.88;10419948;28;20284;-65
2023/01/24 10:33:57;;;;;;;1999.90;999.90;;;;;;;2.20;100.00;103903.25;10419693;28;20129;-65
2023/01/24 10:38:59;;;;;;;1999.90;999.90;;;;;;;2.28;100.00;103906.03;10418990;28;20050;-65
2023/01/24 10:44:13;;;;;;;1999.90;999.90;;;;;;;2.18;100.00;103898.84;10419828;28;20559;-65
2023/01/24 10:49:23;;;;;;;1999.90;999.90;;;;;;;2.26;100.00;103899.09;10419128;28;20057;-66
2023/01/24 10:54:26;;;;;;;1999.90;999.90;;;;;;;2.52;100.00;103899.75;10418953;28;20049;-65
2023/01/24 10:59:28;;;;;;;1999.90;999.90;;;;;;;2.89;100.00;103891.22;10418135;28;20060;-66
2023/01/24 11:04:31;;;;;;;1999.90;999.90;;;;;;;2.55;100.00;103887.78;10418568;28;20047;-65
2023/01/24 11:09:34;;;;;;;1999.90;999.90;;;;;;;2.49;100.00;103884.16;10418403;28;20099;-65
2023/01/24 11:14:36;;;;;;;1999.90;999.90;;;;;;;2.58;100.00;103887.00;10418643;28;20407;-66
2023/01/24 11:19:40;;;;;;;1999.90;999.90;;;;;;;2.79;100.00;103866.81;10416302;28;20058;-66
2023/01/24 11:24:44;;;;;;;1999.90;999.90;;;;;;;2.47;100.00;103870.31;10417007;28;20054;-65
2023/01/24 11:30:03;;;;;;;1999.90;999.90;;;;;;;2.68;100.00;103868.28;10417553;28;20075;-66
2023/01/24 11:35:15;;;;;;;1999.90;999.90;;;;;;;2.58;100.00;103868.88;10417809;28;20103;-65
2023/01/24 11:40:34;;;;;;;1999.90;999.90;;;;;;;2.82;100.00;103857.38;10416231;28;20496;-65
2023/01/24 11:45:48;;;;;;;1999.90;999.90;;;;;;;2.57;100.00;103862.84;10416712;28;20046;-65
2023/01/24 11:50:56;;;;;;;1999.90;999.90;;;;;;;2.89;97.83;103848.91;10417068;28;20488;-66
2023/01/24 11:56:21;;;;;;;1999.90;999.90;;;;;;;2.89;98.79;103842.06;10414379;28;20045;-66
2023/01/24 12:01:42;;;;;;;1999.90;999.90;;;;;;;2.93;99.84;103836.09;10414029;28;20485;-65
2023/01/24 12:07:02;;;;;;;1999.90;999.90;;;;;;;2.75;99.71;103838.25;10415690;28;20057;-65
2023/01/24 12:12:20;;;;;;;1999.90;999.90;;;;;;;2.89;98.64;103820.44;10415208;28;20452;-65
2023/01/24 12:17:46;;;;;;;1999.90;999.90;;;;;;;2.59;97.82;103817.19;10415769;28;20057;-65
2023/01/24 12:22:49;;;;;;;1999.90;999.90;;;;;;;2.68;98.67;103818.25;10389130;28;20095;-66
2023/01/24 12:27:54;;;;;;;1999.90;999.90;;;;;;;2.67;97.84;103816.50;10399764;28;20050;-65
2023/01/24 12:33:06;;;;;;;1999.90;999.90;;;;;;;2.91;98.26;103814.47;10415173;28;20053;-65
2023/01/24 12:38:08;;;;;;;;;;;;;;;2.96;98.42;103799.94;10416075;28;20089;-65
2023/01/24 12:44:05;;;;;;;1999.90;999.90;;;;;;;2.83;97.63;103795.31;10415421;28;19928;-65
2023/01/24 12:49:14;;;;;;;1999.90;999.90;;;;;;;2.77;97.02;103790.88;10341877;28;20057;-66
2023/01/24 12:54:34;;;;;;;1999.90;999.90;;;;;;;2.96;97.31;103780.94;10415012;28;20049;-65
2023/01/24 12:59:36;;;;;;;1999.90;999.90;;;;;;;2.76;97.59;103793.44;10414479;28;20080;-66
2023/01/24 13:04:51;;;;;;;1999.90;999.90;;;;;;;2.77;97.18;103790.88;10414919;28;20481;-65
2023/01/24 13:10:00;;;;;;;1999.90;999.90;;;;;;;2.73;98.51;103794.22;10415548;28;20049;-66
2023/01/24 13:15:18;;;;;;;1999.90;999.90;;;;;;;2.68;98.17;103788.06;10414722;28;20042;-65
2023/01/24 13:20:48;;;;;;;1999.90;999.90;;;;;;;2.84;96.60;103781.56;10413554;28;20543;-66
2023/01/24 13:26:22;;;;;;;1999.90;999.90;;;;;;;2.61;96.60;103786.19;10404398;28;20042;-66
2023/01/24 13:31:43;;;;;;;1999.90;999.90;;;;;;;2.67;97.17;103778.53;10415048;28;20049;-65
2023/01/24 13:36:50;;;;;;;1999.90;999.90;;;;;;;2.74;96.17;103766.63;10413801;28;20049;-66
2023/01/24 13:42:21;;;;;;;1999.90;999.90;;;;;;;2.51;97.93;103774.72;10414862;28;20052;-66
2023/01/24 13:47:26;;;;;;;1999.90;999.90;;;;;;;2.53;96.37;103769.59;10413956;28;20060;-66
2023/01/24 13:52:31;;;;;;;1999.90;999.90;;;;;;;2.77;97.32;103771.88;10414289;28;20065;-66
2023/01/24 13:57:38;;;;;;;1999.90;999.90;;;;;;;2.56;97.71;103769.69;10420507;28;20081;-66
2023/01/24 14:02:43;;;;;;;1999.90;999.90;;;;;;;2.56;97.31;103764.50;10420953;28;20080;-66
2023/01/24 14:07:46;;;;;;;1999.90;999.90;;;;;;;2.45;96.27;103765.94;10421404;28;20378;-66
2023/01/24 14:12:55;;;;;;;1999.90;999.90;;;;;;;2.66;97.50;103763.00;10419892;28;20128;-66
2023/01/24 14:17:57;;;;;;;1999.90;999.90;;;;;;;2.86;96.96;103760.84;10403397;28;20511;-66
2023/01/24 14:23:03;;;;;;;1999.90;999.90;;;;;;;2.59;96.58;103773.22;10419594;28;20381;-66
2023/01/24 14:28:14;;;;;;;1999.90;999.90;;;;;;;2.55;97.73;103771.38;10420617;28;20053;-66
2023/01/24 14:33:41;;;;;;;1999.90;999.90;;;;;;;2.49;97.16;103773.84;10419311;28;20484;-66
2023/01/24 14:38:44;;;;;;;1999.90;999.90;;;;;;;2.69;97.28;103770.81;10418965;28;20119;-66
2023/01/24 14:43:46;;;;;;;1999.90;999.90;;;;;;;2.68;97.42;103777.72;10418864;28;20068;-66
2023/01/24 14:48:49;;;;;;;1999.90;999.90;;;;;;;2.70;97.84;103781.22;10419536;28;20080;-67
2023/01/24 14:53:53;;;;;;;1999.90;999.90;;;;;;;2.44;99.00;103782.28;10419518;28;20044;-66
2023/01/24 14:59:11;;;;;;;1999.90;999.90;;;;;;;2.63;99.23;103779.31;10418866;28;20050;-66
2023/01/24 15:04:28;;;;;;;1999.90;999.90;;;;;;;2.54;100.00;103792.91;10418725;28;20049;-66
2023/01/24 15:09:30;;;;;;;1999.90;999.90;;;;;;;2.46;99.82;103783.22;10418577;28;20103;-66
2023/01/24 15:14:33;;;;;;;1999.90;999.90;;;;;;;2.48;98.85;103785.00;10418209;28;20111;-66
2023/01/24 15:19:35;;;;;;;1999.90;999.90;;;;;;;2.54;99.58;103787.75;10419212;28;20133;-66
2023/01/24 15:24:37;;;;;;;1999.90;999.90;;;;;;;2.43;99.88;103784.00;10418357;28;20096;-66
2023/01/24 15:29:48;;;;;;;1999.90;999.90;;;;;;;2.08;100.00;103775.38;10417653;28;20049;-66
2023/01/24 15:34:51;;;;;;;1999.90;999.90;;;;;;;2.22;100.00;103781.78;10418527;28;20125;-66
2023/01/24 15:39:57;;;;;;;1999.90;999.90;;;;;;;2.49;99.98;103776.41;10418378;28;20049;-66
2023/01/24 15:45:01;;;;;;;1999.90;999.90;;;;;;;2.29;100.00;103778.50;10418252;28;20053;-66
2023/01/24 15:55:39;;;;;;;1999.90;999.90;;;;;;;2.02;100.00;103778.69;10414896;28;20103;-66
2023/01/24 16:00:53;;;;;;;1999.90;999.90;;;;;;;2.13;100.00;103777.22;10414700;28;20049;-66
2023/01/24 16:05:56;;;;;;;1999.90;999.90;;;;;;;2.14;100.00;103773.81;10383800;22;1134313;-69
2023/01/24 16:10:58;;;;;;;1999.90;999.90;;;;;;;2.14;100.00;103772.97;10399092;28;20504;-69
2023/01/24 16:16:04;;;;;;;1999.90;999.90;;;;;;;2.09;100.00;103788.34;10416259;28;20460;-69
2023/01/24 16:21:07;;;;;;;1999.90;999.90;;;;;;;2.17;99.70;103785.94;10398680;28;20059;-69
2023/01/24 16:26:23;;;;;;;1999.90;999.90;;;;;;;2.22;100.00;103786.97;10413063;28;20491;-69
2023/01/24 16:31:25;;;;;;;1999.90;999.90;;;;;;;2.34;99.30;103787.25;10358865;28;20093;-69
2023/01/24 16:36:28;;;;;;;1999.90;999.90;;;;;;;2.35;99.89;103791.56;10383567;28;20041;-69
2023/01/24 16:41:31;;;;;;;1999.90;999.90;;;;;;;2.01;99.79;103782.09;10449281;28;20045;-69
2023/01/24 16:46:33;;;;;;;1999.90;999.90;;;;;;;1.71;100.00;103784.72;10397873;28;20045;-69
2023/01/24 16:51:36;;;;;;;1999.90;999.90;;;;;;;1.91;100.00;103790.44;10415257;28;20053;-69
2023/01/24 16:56:38;;;;;;;1999.90;999.90;;;;;;;2.10;99.85;103784.94;10415615;28;20056;-70
2023/01/24 17:01:41;;;;;;;1999.90;999.90;;;;;;;1.93;100.00;103781.00;10416465;28;20104;-69
2023/01/24 17:06:43;;;;;;;1999.90;999.90;;;;;;;1.90;100.00;103781.81;10412738;28;20435;-69
2023/01/24 17:11:46;;;;;;;1999.90;999.90;;;;;;;1.75;100.00;103781.38;10411748;28;20087;-69
2023/01/24 17:16:49;;;;;;;1999.90;999.90;;;;;;;1.45;100.00;103779.72;10438909;28;20053;-69
2023/01/24 17:21:51;;;;;;;1999.90;999.90;;;;;;;1.61;100.00;103786.19;10427378;28;20098;-69
2023/01/24 17:26:53;;;;;;;1999.90;999.90;;;;;;;1.86;100.00;103775.66;10434767;28;20049;-69
2023/01/24 17:31:56;;;;;;;1999.90;999.90;;;;;;;1.59;100.00;103773.22;10402951;28;20053;-69
2023/01/24 17:36:59;;;;;;;1999.90;999.90;;;;;;;1.55;100.00;103776.56;10416021;28;20084;-69
2023/01/24 17:42:01;;;;;;;1999.90;999.90;;;;;;;1.65;100.00;103778.56;10361089;28;20053;-69
2023/01/24 17:47:04;;;;;;;1999.90;999.90;;;;;;;1.91;100.00;103777.53;10386577;28;20050;-69
2023/01/24 17:52:06;;;;;;;1999.90;999.90;;;;;;;1.76;100.00;103781.44;10421020;28;20057;-69
2023/01/24 17:57:08;;;;;;;1999.90;999.90;;;;;;;1.75;100.00;103786.56;10418831;28;20046;-69
2023/01/24 18:02:11;;;;;;;1999.90;999.90;;;;;;;1.36;100.00;103779.44;10419892;28;20060;-69
2023/01/24 18:07:13;;;;;;;1999.90;999.90;;;;;;;1.30;100.00;103790.47;10419378;28;20057;-69
2023/01/24 18:12:16;;;;;;;1999.90;999.90;;;;;;;1.28;100.00;103789.56;10404988;28;20049;-69
2023/01/24 18:17:18;;;;;;;1999.90;999.90;;;;;;;1.26;100.00;103781.78;10398170;28;20065;-69
2023/01/24 18:22:20;;;;;;;1999.90;999.90;;;;;;;1.76;100.00;103778.84;10370077;28;20408;-70
2023/01/24 18:27:23;;;;;;;1999.90;999.90;;;;;;;1.74;98.58;103784.81;10390261;28;20484;-70
2023/01/24 18:32:26;;;;;;;1999.90;999.90;;;;;;;1.80;100.00;103784.97;10386657;28;20408;-70
2023/01/24 18:37:28;;;;;;;1999.90;999.90;;;;;;;1.83;98.93;103785.06;10403329;28;20046;-70
2023/01/24 18:42:31;;;;;;;1999.90;999.90;;;;;;;1.42;100.00;103780.50;10415607;28;20045;-69
2023/01/24 18:47:33;;;;;;;1999.90;999.90;;;;;;;1.81;100.00;103779.84;10416509;28;20092;-69
2023/01/24 18:52:36;;;;;;;1999.90;999.90;;;;;;;1.67;98.92;103778.59;10402081;28;20518;-69
2023/01/24 18:57:39;;;;;;;1999.90;999.90;;;;;;;1.70;100.00;103789.03;10419375;28;20053;-69
2023/01/24 19:02:44;;;;;;;1999.90;999.90;;;;;;;1.61;100.00;103784.47;10402483;28;20049;-70
2023/01/24 19:07:46;;;;;;;1999.90;999.90;;;;;;;1.69;99.33;103791.56;10401935;28;20060;-69
2023/01/24 19:12:48;;;;;;;1999.90;999.90;;;;;;;1.51;99.79;103790.19;10419455;28;20050;-69
2023/01/24 19:17:51;;;;;;;1999.90;999.90;;;;;;;1.67;100.00;103791.53;10419211;28;20056;-69
2023/01/24 19:22:53;;;;;;;1999.90;999.90;;;;;;;1.78;100.00;103789.22;10400828;28;20551;-69
2023/01/24 19:27:55;;;;;;;1999.90;999.90;;;;;;;1.70;100.00;103778.69;10418781;28;20058;-69
2023/01/24 19:32:58;;;;;;;1999.90;999.90;;;;;;;1.51;100.00;103782.44;10418860;28;20050;-69
2023/01/24 19:38:00;;;;;;;1999.90;999.90;;;;;;;1.59;100.00;103793.00;10418049;28;20053;-69
2023/01/24 19:43:02;;;;;;;1999.90;999.90;;;;;;;1.71;99.55;103776.97;10418259;28;20056;-69
2023/01/24 19:48:05;;;;;;;1999.90;999.90;;;;;;;1.35;100.00;103780.28;10418102;28;20054;-69
2023/01/24 19:53:09;;;;;;;1999.90;999.90;;;;;;;1.11;99.09;103782.19;10417337;28;20053;-69
2023/01/24 19:58:11;;;;;;;1999.90;999.90;;;;;;;1.08;99.68;103787.25;10400250;28;20053;-70
2023/01/24 20:03:13;;;;;;;1999.90;999.90;;;;;;;1.27;100.00;103788.66;10416914;28;20075;-69
2023/01/24 20:08:16;;;;;;;1999.90;999.90;;;;;;;1.39;100.00;103785.56;10399549;28;20060;-69
2023/01/24 20:13:21;;;;;;;1999.90;999.90;;;;;;;1.21;99.94;103791.09;10417119;28;20057;-70
2023/01/24 20:18:32;;;;;;;1999.90;999.90;;;;;;;1.56;100.00;103787.75;10400736;28;20511;-69
2023/01/24 20:23:35;;;;;;;1999.90;999.90;;;;;;;1.68;100.00;103788.09;10399332;28;20050;-69
2023/01/24 20:28:38;;;;;;;1999.90;999.90;;;;;;;1.53;100.00;103792.84;10399062;28;20131;-69
2023/01/24 20:33:41;;;;;;;1999.90;999.90;;;;;;;1.62;99.87;103785.34;10416366;28;20042;-70
2023/01/24 20:38:45;;;;;;;1999.90;999.90;;;;;;;1.27;100.00;103787.78;10416172;28;20439;-69
2023/01/24 20:43:51;;;;;;;1999.90;999.90;;;;;;;1.45;100.00;103790.06;10398614;28;20053;-69
2023/01/24 20:49:02;;;;;;;1999.90;999.90;;;;;;;1.53;100.00;103796.31;10401391;28;20049;-66
2023/01/24 20:54:05;;;;;;;1999.90;999.90;;;;;;;1.67;99.79;103794.97;10382038;28;20053;-66
2023/01/24 20:59:08;;;;;;;1999.90;999.90;;;;;;;1.32;99.01;103787.94;10415824;28;20049;-66
2023/01/24 21:04:10;;;;;;;1999.90;999.90;;;;;;;1.13;100.00;103784.81;10396925;28;20108;-66
2023/01/24 21:09:13;;;;;;;1999.90;999.90;;;;;;;1.21;99.17;103782.44;10398039;28;20050;-66
2023/01/24 21:14:15;;;;;;;1999.90;999.90;;;;;;;1.23;99.24;103784.25;10415182;28;20041;-66
2023/01/24 21:19:18;;;;;;;1999.90;999.90;;;;;;;1.32;100.00;103780.19;10415868;28;20058;-66
2023/01/24 21:24:20;;;;;;;1999.90;999.90;;;;;;;1.25;100.00;103780.00;10397131;28;20405;-66
2023/01/24 21:29:38;;;;;;;1999.90;999.90;;;;;;;1.24;100.00;103780.81;10414531;28;20416;-66
2023/01/24 21:34:40;;;;;;;1999.90;999.90;;;;;;;1.42;100.00;103783.06;10414971;28;20072;-66
2023/01/24 21:39:43;;;;;;;1999.90;999.90;;;;;;;1.31;99.73;103781.88;10414345;28;20100;-66
2023/01/24 21:44:46;;;;;;;1999.90;999.90;;;;;;;1.44;100.00;103775.38;10414305;28;20481;-66
2023/01/24 21:49:48;;;;;;;1999.90;999.90;;;;;;;0.80;100.00;103780.38;10414651;28;20045;-66
2023/01/24 21:54:50;;;;;;;1999.90;999.90;;;;;;;1.16;99.10;103774.59;10414508;28;20054;-66
2023/01/24 21:59:53;;;;;;;1999.90;999.90;;;;;;;1.36;98.59;103776.84;10414398;28;20060;-66
2023/01/24 22:04:55;;;;;;;1999.90;999.90;;;;;;;1.15;98.19;103779.72;10413996;28;20053;-66
2023/01/24 22:09:59;;;;;;;1999.90;999.90;;;;;;;0.98;99.40;103776.63;10414308;28;20053;-66
2023/01/24 22:15:02;;;;;;;1999.90;999.90;;;;;;;0.73;99.47;103783.59;10414693;28;20057;-66
2023/01/24 22:20:04;;;;;;;1999.90;999.90;;;;;;;0.72;100.00;103780.16;10421483;28;20111;-66
2023/01/24 22:25:10;;;;;;;1999.90;999.90;;;;;;;0.81;99.19;103770.91;10421197;28;20045;-66
2023/01/24 22:30:23;;;;;;;1999.90;999.90;;;;;;;1.08;99.36;103769.19;10421217;28;20056;-66
2023/01/24 22:35:26;;;;;;;1999.90;999.90;;;;;;;1.25;100.00;103761.06;10403427;28;20095;-66
2023/01/24 22:40:29;;;;;;;1999.90;999.90;;;;;;;1.38;98.86;103759.69;10387012;28;20050;-66
2023/01/24 22:45:32;;;;;;;1999.90;999.90;;;;;;;1.24;99.69;103759.31;10403077;28;20049;-66
2023/01/24 22:50:34;;;;;;;1999.90;999.90;;;;;;;1.24;100.00;103751.56;10420498;28;20045;-66